Time;durP1;ratioP1;P1;durP2;ratioP2;P2;SDS_P1;SDS_P2;PMS_P1;PMS_P2;Temp;Humidity;BMP_temperature;BMP_pressure;BME280_temperature;BME280_humidity;BME280_pressure;Samples;Min_cycle;Max_cycle;Signal;HPM_P1;HPM_P2
2021/04/22 00:00:17;;;;;;;10.07;3.40;;;;;;;;;;5078078;28;20176;-71
2021/04/22 00:02:42;;;;;;;9.43;2.77;;;;;;;;;;5066546;28;20180;-72
2021/04/22 00:05:10;;;;;;;19.63;4.53;;;;;;;;;;5087805;28;20187;-71
2021/04/22 00:07:35;;;;;;;10.97;4.07;;;;;;;;;;5081382;28;20181;-72
2021/04/22 00:10:00;;;;;;;20.40;5.33;;;;;;;;;;5084310;28;20581;-72
2021/04/22 00:12:25;;;;;;;12.93;4.53;;;;;;;;;;5085326;28;20236;-72
2021/04/22 00:14:50;;;;;;;14.50;4.00;;;;;;;;;;5084683;28;20206;-72
2021/04/22 00:17:16;;;;;;;17.90;5.47;;;;;;;;;;5075899;28;20650;-71
2021/04/22 00:19:42;;;;;;;12.73;4.40;;;;;;;;;;5083735;28;20172;-71
2021/04/22 00:22:07;;;;;;;16.13;5.13;;;;;;;;;;5078551;28;20261;-71
2021/04/22 00:24:32;;;;;;;14.10;3.63;;;;;;;;;;5080617;28;20267;-72
2021/04/22 00:26:57;;;;;;;8.37;3.20;;;;;;;;;;5073302;28;20214;-71
2021/04/22 00:29:22;;;;;;;8.50;3.23;;;;;;;;;;5078739;28;20229;-71
2021/04/22 00:31:47;;;;;;;7.83;3.03;;;;;;;;;;5078661;28;20200;-71
2021/04/22 00:34:13;;;;;;;21.43;3.63;;;;;;;;;;5080690;28;20212;-71
2021/04/22 00:36:38;;;;;;;12.03;4.23;;;;;;;;;;5076259;28;20251;-71
2021/04/22 00:39:04;;;;;;;13.47;3.70;;;;;;;;;;5074039;28;20202;-72
2021/04/22 00:41:29;;;;;;;16.13;4.13;;;;;;;;;;5077323;28;20204;-72
2021/04/22 00:43:54;;;;;;;9.37;3.40;;;;;;;;;;5078363;28;20241;-72
2021/04/22 00:46:19;;;;;;;9.60;3.63;;;;;;;;;;5077665;28;20208;-72
2021/04/22 00:48:45;;;;;;;12.13;3.40;;;;;;;;;;5077894;28;20176;-71
2021/04/22 00:51:10;;;;;;;15.43;3.87;;;;;;;;;;5078329;28;20192;-72
2021/04/22 00:53:35;;;;;;;11.20;3.77;;;;;;;;;;5075785;28;20492;-72
2021/04/22 00:56:00;;;;;;;15.23;3.60;;;;;;;;;;5074779;28;20750;-72
2021/04/22 00:58:26;;;;;;;9.63;3.73;;;;;;;;;;5076253;28;20172;-72
2021/04/22 01:00:52;;;;;;;10.33;2.83;;;;;;;;;;5077274;28;20218;-72
2021/04/22 01:03:18;;;;;;;13.40;4.13;;;;;;;;;;5076760;28;20558;-72
2021/04/22 01:05:48;;;;;;;14.27;3.93;;;;;;;;;;5080396;28;20184;-72
2021/04/22 01:08:13;;;;;;;9.90;3.70;;;;;;;;;;5076658;28;20181;-71
2021/04/22 01:10:39;;;;;;;12.33;3.87;;;;;;;;;;5079335;28;20279;-72
2021/04/22 01:13:04;;;;;;;17.37;4.00;;;;;;;;;;5077131;28;20195;-72
2021/04/22 01:15:30;;;;;;;10.23;3.87;;;;;;;;;;5078796;28;20204;-72
2021/04/22 01:17:56;;;;;;;10.80;4.17;;;;;;;;;;5074608;28;20481;-72
2021/04/22 01:20:22;;;;;;;20.17;4.43;;;;;;;;;;5074298;28;20179;-71
2021/04/22 01:22:48;;;;;;;22.23;4.40;;;;;;;;;;5081016;28;20181;-72
2021/04/22 01:25:15;;;;;;;17.67;4.00;;;;;;;;;;5081819;28;20184;-71
2021/04/22 01:27:40;;;;;;;12.77;3.97;;;;;;;;;;5083214;28;20187;-71
2021/04/22 01:30:16;;;;;;;15.33;4.13;;;;;;;;;;5078843;28;20180;-72
2021/04/22 01:32:42;;;;;;;14.13;4.07;;;;;;;;;;5078721;28;20193;-71
2021/04/22 01:35:08;;;;;;;13.03;4.00;;;;;;;;;;5085123;28;20302;-71
2021/04/22 01:37:35;;;;;;;10.93;4.03;;;;;;;;;;5082440;28;20226;-72
2021/04/22 01:40:01;;;;;;;13.63;4.20;;;;;;;;;;5083509;28;20181;-71
2021/04/22 01:42:26;;;;;;;18.23;6.33;;;;;;;;;;5078297;28;20581;-72
2021/04/22 01:44:51;;;;;;;18.93;5.23;;;;;;;;;;5083094;28;20192;-71
2021/04/22 01:47:16;;;;;;;9.13;3.93;;;;;;;;;;5075965;28;20184;-71
2021/04/22 01:49:41;;;;;;;13.03;4.07;;;;;;;;;;5074364;28;20199;-72
2021/04/22 01:52:07;;;;;;;13.87;4.83;;;;;;;;;;5082859;28;20204;-71
2021/04/22 01:54:32;;;;;;;15.93;3.97;;;;;;;;;;5079014;28;20196;-72
2021/04/22 01:56:57;;;;;;;14.63;5.27;;;;;;;;;;5076981;28;20275;-71
2021/04/22 01:59:22;;;;;;;12.77;4.03;;;;;;;;;;5075017;28;20641;-72
2021/04/22 02:01:47;;;;;;;18.37;3.87;;;;;;;;;;5070791;28;20280;-70
2021/04/22 02:04:13;;;;;;;12.93;4.80;;;;;;;;;;5074135;28;20183;-73
2021/04/22 02:06:38;;;;;;;19.87;4.40;;;;;;;;;;5076722;28;20164;-73
2021/04/22 02:09:03;;;;;;;23.03;5.13;;;;;;;;;;5072396;28;20185;-73
2021/04/22 02:11:28;;;;;;;18.90;4.17;;;;;;;;;;5079630;28;20225;-74
2021/04/22 02:13:53;;;;;;;14.60;4.40;;;;;;;;;;5074895;28;20180;-72
2021/04/22 02:16:19;;;;;;;15.40;3.83;;;;;;;;;;5077032;28;20208;-72
2021/04/22 02:18:44;;;;;;;14.90;5.10;;;;;;;;;;5083790;28;20165;-72
2021/04/22 02:21:09;;;;;;;20.70;5.47;;;;;;;;;;5079782;28;20207;-72
2021/04/22 02:23:34;;;;;;;17.77;6.00;;;;;;;;;;5081320;28;20181;-72
2021/04/22 02:25:59;;;;;;;7.63;3.77;;;;;;;;;;5080600;28;20645;-73
2021/04/22 02:28:25;;;;;;;17.27;4.57;;;;;;;;;;5079269;28;20554;-73
2021/04/22 02:30:50;;;;;;;14.43;6.80;;;;;;;;;;5078398;28;20257;-73
2021/04/22 02:33:17;;;;;;;17.37;6.17;;;;;;;;;;5081850;28;20184;-72
2021/04/22 02:35:43;;;;;;;13.37;5.10;;;;;;;;;;5079650;28;20201;-72
2021/04/22 02:38:09;;;;;;;13.37;4.47;;;;;;;;;;5081785;28;20173;-72
2021/04/22 02:40:35;;;;;;;17.60;5.23;;;;;;;;;;5079355;28;20180;-73
2021/04/22 02:43:04;;;;;;;11.20;3.97;;;;;;;;;;5086141;28;20556;-73
2021/04/22 02:45:30;;;;;;;12.90;4.33;;;;;;;;;;5077931;28;20207;-72
2021/04/22 02:47:56;;;;;;;9.27;4.90;;;;;;;;;;5088773;28;20188;-73
2021/04/22 02:50:23;;;;;;;12.67;4.67;;;;;;;;;;5088778;28;20967;-72
2021/04/22 02:52:48;;;;;;;16.33;4.40;;;;;;;;;;5088033;28;20183;-74
2021/04/22 02:55:14;;;;;;;11.20;4.33;;;;;;;;;;5079425;28;20212;-72
2021/04/22 02:57:39;;;;;;;12.83;4.90;;;;;;;;;;5081913;28;20242;-73
2021/04/22 03:00:06;;;;;;;14.40;5.30;;;;;;;;;;5079897;28;20233;-72
2021/04/22 03:02:31;;;;;;;14.93;4.90;;;;;;;;;;5083396;28;20208;-73
2021/04/22 03:04:56;;;;;;;8.97;4.37;;;;;;;;;;5084311;28;20254;-72
2021/04/22 03:07:21;;;;;;;10.67;4.10;;;;;;;;;;5090514;28;20180;-71
2021/04/22 03:09:46;;;;;;;14.13;4.37;;;;;;;;;;5090813;28;20224;-72
2021/04/22 03:12:11;;;;;;;12.00;4.10;;;;;;;;;;5078882;28;20211;-71
2021/04/22 03:14:37;;;;;;;11.20;4.67;;;;;;;;;;5078545;28;20751;-71
2021/04/22 03:17:02;;;;;;;15.67;5.23;;;;;;;;;;5081212;28;20202;-71
2021/04/22 03:19:27;;;;;;;15.07;4.30;;;;;;;;;;5076911;28;20179;-71
2021/04/22 03:21:52;;;;;;;16.77;5.93;;;;;;;;;;5077807;28;20751;-71
2021/04/22 03:24:18;;;;;;;13.60;5.13;;;;;;;;;;5075072;28;20195;-71
2021/04/22 03:26:43;;;;;;;17.17;5.37;;;;;;;;;;5077803;28;20183;-72
2021/04/22 03:29:08;;;;;;;14.50;6.27;;;;;;;;;;5079993;28;20201;-73
2021/04/22 03:31:33;;;;;;;12.77;5.13;;;;;;;;;;5082531;28;20204;-72
2021/04/22 03:33:58;;;;;;;12.97;4.27;;;;;;;;;;5077162;28;20668;-71
2021/04/22 03:36:24;;;;;;;13.97;5.23;;;;;;;;;;5077026;28;20246;-71
2021/04/22 03:38:49;;;;;;;16.10;5.40;;;;;;;;;;5077806;28;20534;-71
2021/04/22 03:41:15;;;;;;;8.17;4.03;;;;;;;;;;5076937;28;20238;-72
2021/04/22 03:43:40;;;;;;;13.13;5.10;;;;;;;;;;5078609;28;20180;-71
2021/04/22 03:46:05;;;;;;;14.57;5.53;;;;;;;;;;5076799;28;20188;-71
2021/04/22 03:48:30;;;;;;;18.73;5.83;;;;;;;;;;5074875;28;20612;-72
2021/04/22 03:50:56;;;;;;;12.10;5.87;;;;;;;;;;5077159;28;20208;-72
2021/04/22 03:53:21;;;;;;;14.27;6.23;;;;;;;;;;5080009;28;20225;-71
2021/04/22 03:55:46;;;;;;;23.73;7.57;;;;;;;;;;5076282;28;20240;-72
2021/04/22 03:58:11;;;;;;;14.93;5.47;;;;;;;;;;5078148;28;20171;-72
2021/04/22 04:00:36;;;;;;;15.57;6.43;;;;;;;;;;5075978;28;20696;-71
2021/04/22 04:03:02;;;;;;;20.80;6.83;;;;;;;;;;5077255;28;20185;-71
2021/04/22 04:05:27;;;;;;;16.57;5.90;;;;;;;;;;5078393;28;20184;-71
2021/04/22 04:07:55;;;;;;;22.60;6.13;;;;;;;;;;5078984;28;20177;-71
2021/04/22 04:10:20;;;;;;;17.67;6.43;;;;;;;;;;5074429;28;20181;-72
2021/04/22 04:12:45;;;;;;;15.93;6.03;;;;;;;;;;5079115;28;20645;-71
2021/04/22 04:15:11;;;;;;;9.77;4.97;;;;;;;;;;5097243;28;20258;-72
2021/04/22 04:17:37;;;;;;;20.67;6.90;;;;;;;;;;5078160;28;20191;-72
2021/04/22 04:20:04;;;;;;;22.43;7.30;;;;;;;;;;5069588;28;20362;-70
2021/04/22 04:22:29;;;;;;;12.23;6.27;;;;;;;;;;5074834;28;20258;-70
2021/04/22 04:24:54;;;;;;;14.03;5.50;;;;;;;;;;5077816;28;20212;-69
2021/04/22 04:27:19;;;;;;;15.87;6.60;;;;;;;;;;5077927;28;20682;-69
2021/04/22 04:29:45;;;;;;;14.63;6.10;;;;;;;;;;5084080;28;20192;-70
2021/04/22 04:32:10;;;;;;;17.33;6.27;;;;;;;;;;5077258;28;20274;-68
2021/04/22 04:34:35;;;;;;;14.93;5.47;;;;;;;;;;5078576;28;20250;-70
2021/04/22 04:37:02;;;;;;;14.00;5.33;;;;;;;;;;5080708;28;20168;-70
2021/04/22 04:39:28;;;;;;;19.10;7.40;;;;;;;;;;5077543;28;20191;-70
2021/04/22 04:41:53;;;;;;;19.70;5.60;;;;;;;;;;5072368;28;20613;-70
2021/04/22 04:44:18;;;;;;;16.73;5.50;;;;;;;;;;5074355;28;20272;-70
2021/04/22 04:46:43;;;;;;;16.70;5.73;;;;;;;;;;5072576;28;20172;-69
2021/04/22 04:49:08;;;;;;;14.97;4.37;;;;;;;;;;5082700;28;20521;-70
2021/04/22 04:51:35;;;;;;;17.47;5.40;;;;;;;;;;5073921;28;20334;-69
2021/04/22 04:54:00;;;;;;;12.47;4.70;;;;;;;;;;5078004;28;20279;-70
2021/04/22 04:56:25;;;;;;;15.27;5.00;;;;;;;;;;5075870;28;20863;-70
2021/04/22 04:58:50;;;;;;;12.57;4.83;;;;;;;;;;5081382;28;20181;-70
2021/04/22 05:01:16;;;;;;;14.43;4.43;;;;;;;;;;5078273;28;20250;-69
2021/04/22 05:03:41;;;;;;;12.60;4.73;;;;;;;;;;5070097;28;20255;-70
2021/04/22 05:06:06;;;;;;;10.37;3.93;;;;;;;;;;5074285;28;20180;-70
2021/04/22 05:08:32;;;;;;;11.00;3.67;;;;;;;;;;5078575;28;20646;-69
2021/04/22 05:10:57;;;;;;;11.53;4.27;;;;;;;;;;5076232;28;20578;-70
2021/04/22 05:13:22;;;;;;;13.87;4.00;;;;;;;;;;5081358;28;20184;-70
2021/04/22 05:15:47;;;;;;;17.27;4.50;;;;;;;;;;5077155;28;20249;-69
2021/04/22 05:18:12;;;;;;;17.70;4.37;;;;;;;;;;5071683;28;20182;-70
2021/04/22 05:20:38;;;;;;;11.40;3.40;;;;;;;;;;5080120;28;20192;-70
2021/04/22 05:23:03;;;;;;;21.03;5.10;;;;;;;;;;5077583;28;20719;-70
2021/04/22 05:25:28;;;;;;;15.80;4.03;;;;;;;;;;5075408;28;20189;-71
2021/04/22 05:27:53;;;;;;;12.53;4.33;;;;;;;;;;5079702;28;20259;-71
2021/04/22 05:30:19;;;;;;;14.07;3.90;;;;;;;;;;5081730;28;20595;-70
2021/04/22 05:32:44;;;;;;;15.87;4.93;;;;;;;;;;5071850;28;20172;-70
2021/04/22 05:35:10;;;;;;;13.27;4.67;;;;;;;;;;5075503;28;20200;-70
2021/04/22 05:37:35;;;;;;;15.30;4.73;;;;;;;;;;5077436;28;20207;-71
2021/04/22 05:40:00;;;;;;;8.67;3.93;;;;;;;;;;5079939;28;20255;-70
2021/04/22 05:42:26;;;;;;;15.83;4.67;;;;;;;;;;5082175;28;20234;-70
2021/04/22 05:44:51;;;;;;;11.83;4.13;;;;;;;;;;5085398;28;20271;-69
2021/04/22 05:47:16;;;;;;;9.03;3.77;;;;;;;;;;5075917;28;20237;-69
2021/04/22 05:49:41;;;;;;;12.53;4.20;;;;;;;;;;5077467;28;20556;-69
2021/04/22 05:52:07;;;;;;;10.67;4.00;;;;;;;;;;5081953;28;20210;-70
2021/04/22 05:54:32;;;;;;;11.27;4.03;;;;;;;;;;5079261;28;20236;-69
2021/04/22 05:56:57;;;;;;;15.97;5.23;;;;;;;;;;5075301;28;20215;-71
2021/04/22 05:59:22;;;;;;;16.63;3.97;;;;;;;;;;5081800;28;20271;-70
2021/04/22 06:01:47;;;;;;;6.43;3.30;;;;;;;;;;5078543;28;20192;-71
2021/04/22 06:04:13;;;;;;;15.87;4.57;;;;;;;;;;5084070;28;20188;-69
2021/04/22 06:06:38;;;;;;;15.43;4.30;;;;;;;;;;5076300;28;20225;-69
2021/04/22 06:09:03;;;;;;;12.80;3.97;;;;;;;;;;5082989;28;20181;-69
2021/04/22 06:11:28;;;;;;;10.10;3.70;;;;;;;;;;5081748;28;20624;-69
2021/04/22 06:13:54;;;;;;;7.03;4.10;;;;;;;;;;5088835;28;20233;-70
2021/04/22 06:16:19;;;;;;;11.50;4.27;;;;;;;;;;5088556;28;20619;-69
2021/04/22 06:18:44;;;;;;;11.50;3.33;;;;;;;;;;5088254;28;20172;-70
2021/04/22 06:21:11;;;;;;;19.83;4.10;;;;;;;;;;5084461;28;20203;-69
2021/04/22 06:23:36;;;;;;;9.80;3.50;;;;;;;;;;5085656;28;20181;-70
2021/04/22 06:26:02;;;;;;;10.23;3.03;;;;;;;;;;5079992;28;20572;-69
2021/04/22 06:28:27;;;;;;;9.27;2.77;;;;;;;;;;5082874;28;20176;-70
2021/04/22 06:30:52;;;;;;;13.03;3.37;;;;;;;;;;5085540;28;20192;-69
2021/04/22 06:33:17;;;;;;;10.90;3.97;;;;;;;;;;5086571;28;20560;-69
2021/04/22 06:35:43;;;;;;;12.70;3.60;;;;;;;;;;5077263;28;20204;-68
2021/04/22 06:38:08;;;;;;;10.80;3.20;;;;;;;;;;5085701;28;20180;-69
2021/04/22 06:40:34;;;;;;;9.43;3.03;;;;;;;;;;5080826;28;20654;-70
2021/04/22 06:42:59;;;;;;;15.90;3.43;;;;;;;;;;5078227;28;20168;-70
2021/04/22 06:45:24;;;;;;;9.77;2.93;;;;;;;;;;5080414;28;20277;-70
2021/04/22 06:47:50;;;;;;;9.73;2.97;;;;;;;;;;5090058;28;20173;-70
2021/04/22 06:50:17;;;;;;;9.93;3.03;;;;;;;;;;5082501;28;20187;-69
2021/04/22 06:52:42;;;;;;;11.47;2.73;;;;;;;;;;5079259;28;20176;-69
2021/04/22 06:55:11;;;;;;;14.03;2.93;;;;;;;;;;5079673;28;20704;-70
2021/04/22 06:57:36;;;;;;;9.23;2.63;;;;;;;;;;5081489;28;20168;-69
2021/04/22 07:00:04;;;;;;;11.97;2.87;;;;;;;;;;5081748;28;20226;-70
2021/04/22 07:02:29;;;;;;;15.07;3.20;;;;;;;;;;5086438;28;20287;-70
2021/04/22 07:04:54;;;;;;;12.43;2.77;;;;;;;;;;5072378;28;20276;-69
2021/04/22 07:07:19;;;;;;;11.17;2.70;;;;;;;;;;5081883;28;20181;-69
2021/04/22 07:09:45;;;;;;;6.80;1.90;;;;;;;;;;5086220;28;20585;-69
2021/04/22 07:12:10;;;;;;;9.37;2.63;;;;;;;;;;5088066;28;20209;-69
2021/04/22 07:14:35;;;;;;;8.67;2.73;;;;;;;;;;5079401;28;20571;-69
2021/04/22 07:17:00;;;;;;;7.90;2.33;;;;;;;;;;5086666;28;20267;-69
2021/04/22 07:19:26;;;;;;;8.93;2.30;;;;;;;;;;5083883;28;20180;-70
2021/04/22 07:21:51;;;;;;;6.97;2.20;;;;;;;;;;5080273;28;20284;-69
2021/04/22 07:24:16;;;;;;;12.93;3.47;;;;;;;;;;5080000;28;20168;-68
2021/04/22 07:26:42;;;;;;;7.33;1.93;;;;;;;;;;5081075;28;21015;-68
2021/04/22 07:29:07;;;;;;;7.67;2.40;;;;;;;;;;5078231;28;20726;-68
2021/04/22 07:31:32;;;;;;;11.60;2.40;;;;;;;;;;5075773;28;20201;-68
2021/04/22 07:33:57;;;;;;;7.00;2.07;;;;;;;;;;5079358;28;20251;-68
2021/04/22 07:36:23;;;;;;;11.63;2.40;;;;;;;;;;5077342;28;20745;-68
2021/04/22 07:38:48;;;;;;;10.10;2.17;;;;;;;;;;5079440;28;20183;-69
2021/04/22 07:41:13;;;;;;;10.33;2.77;;;;;;;;;;5077478;28;20300;-69
2021/04/22 07:43:39;;;;;;;9.33;2.87;;;;;;;;;;5077677;28;20172;-69
2021/04/22 07:46:04;;;;;;;5.47;2.30;;;;;;;;;;5070712;28;20930;-67
2021/04/22 07:48:29;;;;;;;8.23;2.17;;;;;;;;;;5070915;28;20181;-69
2021/04/22 07:50:55;;;;;;;6.60;2.00;;;;;;;;;;5079458;28;20193;-71
2021/04/22 07:53:20;;;;;;;8.13;2.17;;;;;;;;;;5070836;28;20268;-68
2021/04/22 07:55:45;;;;;;;8.17;2.50;;;;;;;;;;5079068;28;20592;-69
2021/04/22 07:58:12;;;;;;;7.47;2.20;;;;;;;;;;5081738;28;20172;-69
2021/04/22 08:00:37;;;;;;;8.00;2.77;;;;;;;;;;5084595;28;20278;-69
2021/04/22 08:03:02;;;;;;;9.00;2.63;;;;;;;;;;5086240;28;20204;-69
2021/04/22 08:05:30;;;;;;;6.30;2.40;;;;;;;;;;5085035;28;20515;-68
2021/04/22 08:07:55;;;;;;;9.07;3.07;;;;;;;;;;5078231;28;20179;-68
2021/04/22 08:10:22;;;;;;;10.97;2.70;;;;;;;;;;5075010;28;20180;-69
2021/04/22 08:12:47;;;;;;;7.67;2.10;;;;;;;;;;5074956;28;20183;-69
2021/04/22 08:15:13;;;;;;;5.57;2.10;;;;;;;;;;5081904;28;20209;-68
2021/04/22 08:17:39;;;;;;;10.73;2.70;;;;;;;;;;5080229;28;20204;-69
2021/04/22 08:20:06;;;;;;;5.33;2.00;;;;;;;;;;5069566;28;20181;-68
2021/04/22 08:22:35;;;;;;;11.90;2.40;;;;;;;;;;5077080;28;20262;-69
2021/04/22 08:25:00;;;;;;;8.87;2.30;;;;;;;;;;5081871;28;20183;-68
2021/04/22 08:27:26;;;;;;;7.80;2.43;;;;;;;;;;5078258;28;20765;-69
2021/04/22 08:29:52;;;;;;;8.93;2.13;;;;;;;;;;5076725;28;20253;-69
2021/04/22 08:32:17;;;;;;;7.10;2.50;;;;;;;;;;5074031;28;20207;-69
2021/04/22 08:34:42;;;;;;;6.27;2.53;;;;;;;;;;5075093;28;20301;-69
2021/04/22 08:37:07;;;;;;;6.90;2.00;;;;;;;;;;5080386;28;20203;-68
2021/04/22 08:39:32;;;;;;;7.53;2.10;;;;;;;;;;5075534;28;20191;-69
2021/04/22 08:41:58;;;;;;;5.07;2.27;;;;;;;;;;5075638;28;20237;-69
2021/04/22 08:44:23;;;;;;;9.00;2.53;;;;;;;;;;5075800;28;20689;-68
2021/04/22 08:46:48;;;;;;;15.93;3.83;;;;;;;;;;5082506;28;20649;-69
2021/04/22 08:49:14;;;;;;;6.97;2.20;;;;;;;;;;5082117;28;20184;-71
2021/04/22 08:51:39;;;;;;;7.77;2.30;;;;;;;;;;5071497;28;20236;-69
2021/04/22 08:54:05;;;;;;;5.78;1.83;;;;;;;;;;5070866;28;20185;-70
2021/04/22 08:56:34;;;;;;;8.50;3.33;;;;;;;;;;5083840;28;20196;-70
2021/04/22 08:58:59;;;;;;;4.65;2.45;;;;;;;;;;5074599;28;20172;-68
2021/04/22 09:01:25;;;;;;;7.30;2.20;;;;;;;;;;5080865;28;20215;-67
2021/04/22 09:03:51;;;;;;;7.60;2.47;;;;;;;;;;5070964;28;20173;-70
2021/04/22 09:06:16;;;;;;;5.40;2.43;;;;;;;;;;5078773;28;20237;-71
2021/04/22 09:08:50;;;;;;;8.73;2.80;;;;;;;;;;5078576;28;20287;-70
2021/04/22 09:11:17;;;;;;;9.10;2.33;;;;;;;;;;5073582;28;20212;-69
2021/04/22 09:13:42;;;;;;;8.07;2.42;;;;;;;;;;5073938;28;20607;-71
2021/04/22 09:16:09;;;;;;;6.47;2.57;;;;;;;;;;5073181;28;20197;-70
2021/04/22 09:18:39;;;;;;;9.75;3.13;;;;;;;;;;5080511;28;20231;-71
2021/04/22 09:21:05;;;;;;;5.55;2.03;;;;;;;;;;5072676;28;20218;-71
2021/04/22 09:23:30;;;;;;;8.30;3.50;;;;;;;;;;5076316;28;20634;-69
2021/04/22 09:25:57;;;;;;;4.80;1.95;;;;;;;;;;5075275;28;20204;-71
2021/04/22 09:28:32;;;;;;;6.63;1.98;;;;;;;;;;5078430;28;20207;-68
2021/04/22 09:30:57;;;;;;;7.32;1.90;;;;;;;;;;5074535;28;20684;-71
2021/04/22 09:33:23;;;;;;;5.30;2.20;;;;;;;;;;5084805;28;20188;-71
2021/04/22 09:35:48;;;;;;;5.50;2.30;;;;;;;;;;5080490;28;20247;-71
2021/04/22 09:38:13;;;;;;;5.00;2.40;;;;;;;;;;5078984;28;20179;-71
2021/04/22 09:40:41;;;;;;;6.78;2.20;;;;;;;;;;5074715;28;20204;-68
2021/04/22 09:43:14;;;;;;;8.48;2.25;;;;;;;;;;5080693;28;20184;-68
2021/04/22 09:45:43;;;;;;;6.18;2.20;;;;;;;;;;5087505;28;20199;-68
2021/04/22 09:48:27;;;;;;;5.85;2.50;;;;;;;;;;5081736;28;20176;-68
2021/04/22 09:50:53;;;;;;;6.40;3.00;;;;;;;;;;5073948;28;21736;-68
2021/04/22 09:53:18;;;;;;;8.82;2.40;;;;;;;;;;5076658;28;20260;-67
2021/04/22 09:55:44;;;;;;;6.57;2.55;;;;;;;;;;5080510;28;20200;-69
2021/04/22 09:58:10;;;;;;;7.15;2.97;;;;;;;;;;5081508;28;20276;-69
2021/04/22 10:00:35;;;;;;;4.50;2.17;;;;;;;;;;5076015;28;20689;-68
2021/04/22 10:03:08;;;;;;;5.25;2.17;;;;;;;;;;5079071;28;20180;-68
2021/04/22 10:05:35;;;;;;;6.55;2.10;;;;;;;;;;5086511;28;20583;-71
2021/04/22 10:08:03;;;;;;;7.60;2.67;;;;;;;;;;5077892;28;20184;-71
2021/04/22 10:10:28;;;;;;;7.18;2.50;;;;;;;;;;5075816;28;20196;-69
2021/04/22 10:12:58;;;;;;;8.50;2.10;;;;;;;;;;5079738;28;20176;-70
2021/04/22 10:15:23;;;;;;;6.93;2.05;;;;;;;;;;5076688;28;20215;-70
2021/04/22 10:17:53;;;;;;;8.52;2.75;;;;;;;;;;5085958;28;20562;-70
2021/04/22 10:20:18;;;;;;;6.38;2.17;;;;;;;;;;5077584;28;20257;-69
2021/04/22 10:22:45;;;;;;;5.82;2.10;;;;;;;;;;5081724;28;20184;-71
2021/04/22 10:25:11;;;;;;;7.07;3.47;;;;;;;;;;5086158;28;20680;-71
2021/04/22 10:27:37;;;;;;;5.55;2.42;;;;;;;;;;5076372;28;20185;-69
2021/04/22 10:30:04;;;;;;;4.60;1.88;;;;;;;;;;5082226;28;20346;-71
2021/04/22 10:32:29;;;;;;;6.32;2.17;;;;;;;;;;5078650;28;20644;-71
2021/04/22 10:34:54;;;;;;;5.93;2.08;;;;;;;;;;5084763;28;20287;-70
2021/04/22 10:37:21;;;;;;;6.97;2.00;;;;;;;;;;5073706;28;20190;-70
2021/04/22 10:39:47;;;;;;;7.63;2.35;;;;;;;;;;5084710;28;20180;-69
2021/04/22 10:42:13;;;;;;;7.80;2.33;;;;;;;;;;5076640;28;20203;-69
2021/04/22 10:44:38;;;;;;;7.85;2.47;;;;;;;;;;5073689;28;20191;-69
2021/04/22 10:47:04;;;;;;;7.30;1.95;;;;;;;;;;5075569;28;20222;-69
2021/04/22 10:49:29;;;;;;;5.15;2.03;;;;;;;;;;5087874;28;20180;-69
2021/04/22 10:51:54;;;;;;;4.40;1.98;;;;;;;;;;5073935;28;20686;-68
2021/04/22 10:54:20;;;;;;;5.93;2.22;;;;;;;;;;5077137;28;20264;-71
2021/04/22 10:56:46;;;;;;;6.88;2.20;;;;;;;;;;5082291;28;20599;-70
2021/04/22 10:59:19;;;;;;;5.90;2.38;;;;;;;;;;5088038;28;20621;-69
2021/04/22 11:01:44;;;;;;;5.70;2.47;;;;;;;;;;5084529;28;20244;-69
2021/04/22 11:04:09;;;;;;;5.43;1.83;;;;;;;;;;5079081;28;20596;-67
2021/04/22 11:06:36;;;;;;;6.15;2.50;;;;;;;;;;5072838;28;20265;-70
2021/04/22 11:09:15;;;;;;;6.72;2.33;;;;;;;;;;5077078;28;20172;-68
2021/04/22 11:11:51;;;;;;;5.75;2.03;;;;;;;;;;5074708;28;20216;-70
2021/04/22 11:14:17;;;;;;;8.45;2.20;;;;;;;;;;5082113;28;20179;-69
2021/04/22 11:16:46;;;;;;;11.32;2.60;;;;;;;;;;5076351;28;20209;-67
2021/04/22 11:19:15;;;;;;;5.43;2.40;;;;;;;;;;5078122;28;20296;-69
2021/04/22 11:21:48;;;;;;;5.60;2.08;;;;;;;;;;5074435;28;20451;-69
2021/04/22 11:24:13;;;;;;;6.75;2.05;;;;;;;;;;5078674;28;20169;-69
2021/04/22 11:26:38;;;;;;;10.20;2.60;;;;;;;;;;5081129;28;20267;-69
2021/04/22 11:29:17;;;;;;;5.15;2.13;;;;;;;;;;5084977;28;20424;-67
2021/04/22 11:32:09;;;;;;;4.72;2.00;;;;;;;;;;5079497;28;20280;-69
2021/04/22 11:34:34;;;;;;;7.55;2.40;;;;;;;;;;5071296;28;20288;-69
2021/04/22 11:37:04;;;;;;;5.45;2.33;;;;;;;;;;5075485;28;20251;-68
2021/04/22 11:39:33;;;;;;;7.20;2.50;;;;;;;;;;5075207;28;20180;-69
2021/04/22 11:42:01;;;;;;;7.53;2.63;;;;;;;;;;5073745;28;20244;-69
2021/04/22 11:44:34;;;;;;;5.50;2.63;;;;;;;;;;5076895;28;20177;-68
2021/04/22 11:46:59;;;;;;;7.78;2.65;;;;;;;;;;5075345;28;20189;-70
2021/04/22 11:49:26;;;;;;;4.70;2.28;;;;;;;;;;5078122;28;20177;-70
2021/04/22 11:51:51;;;;;;;5.00;2.53;;;;;;;;;;5073364;28;20217;-71
2021/04/22 11:54:19;;;;;;;7.60;2.55;;;;;;;;;;5071853;28;20662;-68
2021/04/22 11:56:53;;;;;;;6.00;2.10;;;;;;;;;;5073374;28;20712;-71
2021/04/22 11:59:18;;;;;;;6.03;2.42;;;;;;;;;;5076869;28;20181;-70
2021/04/22 12:01:58;;;;;;;8.85;3.42;;;;;;;;;;5083240;28;20252;-70
2021/04/22 12:04:33;;;;;;;4.78;2.42;;;;;;;;;;5081704;28;20251;-71
2021/04/22 12:06:59;;;;;;;6.25;2.33;;;;;;;;;;5080293;28;20172;-69
2021/04/22 12:09:28;;;;;;;8.27;3.08;;;;;;;;;;5080287;28;20183;-70
2021/04/22 12:11:53;;;;;;;7.93;2.42;;;;;;;;;;5075241;28;20200;-71
2021/04/22 12:14:28;;;;;;;6.63;2.67;;;;;;;;;;5085455;28;20173;-71
2021/04/22 12:16:54;;;;;;;7.55;2.85;;;;;;;;;;5080964;28;20549;-71
2021/04/22 12:19:23;;;;;;;7.50;2.47;;;;;;;;;;5077303;28;20173;-71
2021/04/22 12:21:48;;;;;;;7.55;2.45;;;;;;;;;;5069631;28;20276;-71
2021/04/22 12:24:13;;;;;;;8.23;2.93;;;;;;;;;;5077374;28;20180;-71
2021/04/22 12:26:38;;;;;;;7.57;3.15;;;;;;;;;;5077136;28;20444;-71
2021/04/22 12:29:05;;;;;;;8.23;2.90;;;;;;;;;;5083855;28;20219;-71
2021/04/22 12:31:33;;;;;;;9.93;2.80;;;;;;;;;;5076916;28;20708;-71
2021/04/22 12:34:07;;;;;;;8.73;3.25;;;;;;;;;;5078383;28;20233;-71
2021/04/22 12:36:32;;;;;;;5.43;2.45;;;;;;;;;;5081943;28;20703;-69
2021/04/22 12:38:58;;;;;;;9.30;2.60;;;;;;;;;;5077858;28;20184;-70
2021/04/22 12:41:23;;;;;;;6.07;2.40;;;;;;;;;;5083652;28;20189;-70
2021/04/22 12:43:49;;;;;;;11.57;2.95;;;;;;;;;;5079413;28;20184;-70
2021/04/22 12:46:15;;;;;;;5.72;2.28;;;;;;;;;;5076169;28;20180;-70
2021/04/22 12:48:44;;;;;;;5.10;2.15;;;;;;;;;;5084955;28;20649;-69
2021/04/22 12:51:10;;;;;;;6.53;2.80;;;;;;;;;;5071467;28;20204;-70
2021/04/22 12:53:36;;;;;;;7.22;2.30;;;;;;;;;;5073085;28;20561;-69
2021/04/22 12:56:03;;;;;;;8.48;2.72;;;;;;;;;;5075062;28;20196;-69
2021/04/22 12:58:37;;;;;;;9.02;2.80;;;;;;;;;;5074011;28;20179;-70
2021/04/22 13:01:08;;;;;;;6.45;2.72;;;;;;;;;;5071351;28;20310;-69
2021/04/22 13:03:35;;;;;;;7.28;2.47;;;;;;;;;;5080040;28;20168;-69
2021/04/22 13:06:02;;;;;;;7.38;2.28;;;;;;;;;;5076097;28;20179;-71
2021/04/22 13:08:28;;;;;;;6.95;2.60;;;;;;;;;;5074196;28;20223;-71
2021/04/22 13:10:54;;;;;;;8.85;2.88;;;;;;;;;;5082652;28;20188;-70
2021/04/22 13:13:24;;;;;;;4.40;2.50;;;;;;;;;;5073099;28;20593;-71
2021/04/22 13:15:49;;;;;;;6.60;2.50;;;;;;;;;;5078294;28;20303;-70
2021/04/22 13:18:15;;;;;;;6.63;2.40;;;;;;;;;;5077533;28;20251;-71
2021/04/22 13:20:51;;;;;;;4.22;2.65;;;;;;;;;;5071836;28;20193;-69
2021/04/22 13:23:28;;;;;;;4.10;2.33;;;;;;;;;;5078227;28;20176;-70
2021/04/22 13:25:53;;;;;;;7.82;2.67;;;;;;;;;;5083737;28;20184;-70
2021/04/22 13:28:19;;;;;;;6.15;2.30;;;;;;;;;;5080828;28;20177;-70
2021/04/22 13:30:46;;;;;;;7.72;2.50;;;;;;;;;;5077750;28;20295;-71
2021/04/22 13:33:25;;;;;;;5.10;1.88;;;;;;;;;;5079192;28;20272;-70
2021/04/22 13:36:01;;;;;;;8.20;2.55;;;;;;;;;;5075283;28;20672;-68
2021/04/22 13:38:27;;;;;;;5.93;2.22;;;;;;;;;;5076730;28;20182;-70
2021/04/22 13:40:52;;;;;;;7.35;2.45;;;;;;;;;;5070431;28;20201;-71
2021/04/22 13:43:17;;;;;;;7.00;2.33;;;;;;;;;;5070281;28;20177;-70
2021/04/22 13:45:43;;;;;;;4.68;2.15;;;;;;;;;;5077061;28;20185;-71
2021/04/22 13:48:14;;;;;;;9.20;2.63;;;;;;;;;;5082607;28;20226;-69
2021/04/22 13:50:39;;;;;;;6.32;2.35;;;;;;;;;;5080770;28;20196;-70
2021/04/22 13:53:06;;;;;;;7.03;2.50;;;;;;;;;;5074894;28;20703;-71
2021/04/22 13:55:42;;;;;;;5.70;2.47;;;;;;;;;;5078462;28;20286;-71
2021/04/22 13:58:07;;;;;;;9.20;2.95;;;;;;;;;;5080575;28;20176;-68
2021/04/22 14:00:34;;;;;;;5.53;1.95;;;;;;;;;;5078483;28;20187;-71
2021/04/22 14:02:59;;;;;;;9.38;2.30;;;;;;;;;;5077434;28;20172;-69
2021/04/22 14:05:25;;;;;;;4.90;2.10;;;;;;;;;;5072376;28;20184;-70
2021/04/22 14:07:55;;;;;;;7.35;2.53;;;;;;;;;;5087020;28;20180;-69
2021/04/22 14:10:32;;;;;;;10.82;3.13;;;;;;;;;;5081095;28;20199;-68
2021/04/22 14:12:57;;;;;;;7.95;2.97;;;;;;;;;;5076353;28;20192;-71
2021/04/22 14:15:22;;;;;;;7.40;2.28;;;;;;;;;;5082542;28;20197;-69
2021/04/22 14:17:48;;;;;;;6.43;2.75;;;;;;;;;;5079409;28;20568;-69
2021/04/22 14:20:13;;;;;;;7.57;2.30;;;;;;;;;;5080701;28;20271;-70
2021/04/22 14:22:38;;;;;;;10.57;2.50;;;;;;;;;;5079591;28;20201;-72
2021/04/22 14:25:04;;;;;;;4.10;2.10;;;;;;;;;;5077313;28;20214;-70
2021/04/22 14:27:30;;;;;;;7.25;2.63;;;;;;;;;;5080639;28;20181;-69
2021/04/22 14:29:55;;;;;;;6.03;2.75;;;;;;;;;;5081758;28;20176;-70